Time;durP1;ratioP1;P1;durP2;ratioP2;P2;SDS_P1;SDS_P2;PMS_P1;PMS_P2;Temp;Humidity;BMP_temperature;BMP_pressure;BME280_temperature;BME280_humidity;BME280_pressure;Samples;Min_cycle;Max_cycle;Signal;HPM_P1;HPM_P2
2024/04/09 00:01:41;;;;;;;12.85;2.13;;;7.80;99.90;;;7.18;100.00;100705.47;4457228;26;20044;-55
2024/04/09 00:03:41;;;;;;;14.93;2.28;;;7.80;99.90;;;7.19;100.00;100708.91;4456882;26;20020;-56
2024/04/09 00:05:43;;;;;;;8.35;2.55;;;7.90;99.90;;;7.08;100.00;100703.75;4457114;26;20004;-54
2024/04/09 00:07:44;;;;;;;7.80;1.50;;;7.90;99.90;;;7.01;100.00;100707.91;4457287;26;20008;-55
2024/04/09 00:09:45;;;;;;;8.00;1.70;;;7.80;99.90;;;6.90;100.00;100706.19;4457007;26;20048;-54
2024/04/09 00:11:47;;;;;;;10.45;1.38;;;7.70;99.90;;;6.88;100.00;100715.16;4457122;26;20082;-56
2024/04/09 00:13:51;;;;;;;8.10;2.10;;;7.70;99.90;;;6.83;100.00;100709.50;4457020;26;20015;-57
2024/04/09 00:15:51;;;;;;;9.23;1.30;;;7.60;99.90;;;6.93;100.00;100719.06;4464389;26;20016;-56
2024/04/09 00:17:55;;;;;;;13.30;2.05;;;7.60;99.90;;;6.90;100.00;100721.13;4456971;26;20012;-57
2024/04/09 00:19:56;;;;;;;12.15;1.95;;;7.70;99.90;;;6.84;100.00;100726.91;4451118;26;20016;-56
2024/04/09 00:21:57;;;;;;;7.88;1.45;;;7.60;99.90;;;6.80;100.00;100739.44;4439386;26;20012;-57
2024/04/09 00:23:59;;;;;;;11.50;1.90;;;7.60;99.90;;;6.77;100.00;100738.88;4456864;26;20074;-56
2024/04/09 00:25:59;;;;;;;9.02;2.20;;;7.50;99.90;;;6.74;100.00;100736.50;4456907;26;20460;-54
2024/04/09 00:28:00;;;;;;;11.05;1.95;;;7.50;99.90;;;6.70;100.00;100735.94;4456769;26;20032;-55
2024/04/09 00:30:01;;;;;;;11.48;1.95;;;7.50;99.90;;;6.78;100.00;100743.16;4457015;26;20015;-56
2024/04/09 00:32:02;;;;;;;10.95;2.33;;;7.50;99.90;;;6.83;100.00;100738.34;4456648;26;20491;-56
2024/04/09 00:34:04;;;;;;;12.85;2.95;;;7.50;99.90;;;6.88;100.00;100744.84;4456634;26;20004;-56
2024/04/09 00:36:05;;;;;;;10.15;1.65;;;7.60;99.90;;;6.84;100.00;100745.25;4456833;26;20012;-56
2024/04/09 00:38:06;;;;;;;8.13;1.80;;;7.60;99.90;;;6.79;100.00;100753.50;4457003;26;20071;-56
2024/04/09 00:40:09;;;;;;;12.25;2.20;;;7.60;99.90;;;6.68;100.00;100753.59;4456169;26;20008;-55
2024/04/09 00:42:10;;;;;;;9.98;1.85;;;7.50;99.90;;;6.64;100.00;100750.41;4456928;26;20001;-56
2024/04/09 00:44:11;;;;;;;10.27;1.88;;;7.50;99.90;;;6.62;100.00;100761.97;4456480;26;20001;-53
2024/04/09 00:46:13;;;;;;;9.27;1.50;;;7.40;99.90;;;6.64;100.00;100760.88;4456686;26;20008;-56
2024/04/09 00:48:16;;;;;;;12.57;1.92;;;7.40;99.90;;;6.62;100.00;100760.19;4457678;26;20000;-54
2024/04/09 00:50:19;;;;;;;15.90;2.40;;;7.40;99.90;;;6.64;100.00;100763.50;4459392;26;19996;-56
2024/04/09 00:52:21;;;;;;;7.82;1.38;;;7.40;99.90;;;6.64;100.00;100776.63;4459377;26;20000;-57
2024/04/09 00:54:23;;;;;;;16.83;2.35;;;7.40;99.90;;;6.59;100.00;100770.94;4459182;26;20000;-56
2024/04/09 00:56:25;;;;;;;10.43;1.63;;;7.40;99.90;;;6.63;100.00;100782.81;4459445;26;20004;-53
2024/04/09 00:58:26;;;;;;;12.10;1.77;;;7.40;99.90;;;6.60;100.00;100777.81;4457881;26;20000;-55
2024/04/09 01:00:27;;;;;;;12.63;2.50;;;7.40;99.90;;;6.65;100.00;100774.81;4459550;26;20000;-56
2024/04/09 01:02:28;;;;;;;9.63;1.77;;;7.40;99.90;;;6.56;100.00;100776.44;4459091;26;20012;-55
2024/04/09 01:04:29;;;;;;;18.38;2.28;;;7.40;99.90;;;6.54;100.00;100773.09;4459329;26;20000;-54
2024/04/09 01:06:31;;;;;;;13.43;2.97;;;7.30;99.90;;;6.46;100.00;100761.59;4459531;26;20015;-52
2024/04/09 01:08:32;;;;;;;8.50;1.63;;;7.30;99.90;;;6.55;100.00;100774.78;4459441;26;20001;-54
2024/04/09 01:10:33;;;;;;;12.65;1.75;;;7.30;99.90;;;6.48;100.00;100772.81;4459450;26;20004;-55
2024/04/09 01:12:34;;;;;;;8.48;1.77;;;7.30;99.90;;;6.44;100.00;100777.47;4459393;26;20000;-56
2024/04/09 01:14:35;;;;;;;11.05;2.42;;;7.20;99.90;;;6.48;100.00;100791.97;4459342;26;20097;-56
2024/04/09 01:16:36;;;;;;;11.75;2.17;;;7.20;99.90;;;6.43;100.00;100794.13;4459423;26;20019;-55
2024/04/09 01:18:37;;;;;;;9.73;2.83;;;7.20;99.90;;;6.44;100.00;100793.19;4459378;26;20028;-56
2024/04/09 01:20:37;;;;;;;10.98;2.83;;;7.20;99.90;;;6.37;100.00;100786.78;4459111;26;20081;-56
2024/04/09 01:22:39;;;;;;;11.20;2.05;;;7.20;99.90;;;6.40;100.00;100797.00;4459287;26;20014;-55
2024/04/09 01:24:41;;;;;;;8.45;2.00;;;7.20;99.90;;;6.35;100.00;100799.19;4459025;26;20000;-55
2024/04/09 01:26:42;;;;;;;15.70;3.53;;;7.20;99.90;;;6.37;100.00;100799.88;4459341;26;20028;-57
2024/04/09 01:28:42;;;;;;;15.25;1.63;;;7.10;99.90;;;6.44;100.00;100797.59;4459044;26;20011;-54
2024/04/09 01:30:43;;;;;;;8.23;2.13;;;7.10;99.90;;;6.42;100.00;100789.84;4457489;26;20012;-55
2024/04/09 01:32:46;;;;;;;10.55;2.90;;;7.20;99.90;;;6.49;100.00;100796.25;4458498;26;20004;-55
2024/04/09 01:34:47;;;;;;;14.43;2.60;;;7.20;99.90;;;6.47;100.00;100800.78;4459000;26;20004;-54
2024/04/09 01:36:48;;;;;;;10.00;2.08;;;7.20;99.90;;;6.45;100.00;100807.94;4459151;26;20001;-53
2024/04/09 01:38:49;;;;;;;14.15;2.55;;;7.20;99.90;;;6.45;100.00;100815.78;4458613;26;20032;-56
2024/04/09 01:40:50;;;;;;;15.32;2.30;;;7.20;99.90;;;6.44;100.00;100811.53;4458637;26;20030;-56
2024/04/09 01:42:51;;;;;;;13.95;3.03;;;7.20;99.90;;;6.55;100.00;100821.09;4458939;26;20078;-57
2024/04/09 01:44:52;;;;;;;18.42;2.88;;;7.20;99.90;;;6.56;100.00;100828.00;4459003;26;20020;-56
2024/04/09 01:46:52;;;;;;;11.88;3.70;;;7.30;99.90;;;6.62;100.00;100830.97;4458886;26;20004;-57
2024/04/09 01:48:53;;;;;;;17.60;2.80;;;7.30;99.90;;;6.71;100.00;100834.59;4458733;26;20024;-54
2024/04/09 01:50:55;;;;;;;12.45;2.15;;;7.40;99.90;;;6.92;100.00;100839.81;4458829;26;20007;-56
2024/04/09 01:52:56;;;;;;;15.77;2.10;;;7.50;99.90;;;6.91;100.00;100838.97;4458797;26;20007;-56
2024/04/09 01:54:57;;;;;;;13.77;2.17;;;7.50;99.90;;;6.88;100.00;100846.28;4458509;26;20004;-56
2024/04/09 01:56:58;;;;;;;13.02;2.28;;;7.60;99.90;;;6.84;100.00;100852.75;4458753;26;20000;-54
2024/04/09 01:58:59;;;;;;;13.93;2.55;;;7.60;99.90;;;6.94;100.00;100856.25;4458695;26;20004;-54
2024/04/09 02:01:09;;;;;;;15.55;2.13;;;7.60;99.90;;;7.20;100.00;100866.19;4457138;26;20077;-56
2024/04/09 02:03:10;;;;;;;14.35;2.20;;;7.70;99.90;;;7.29;100.00;100858.50;4458846;26;20015;-57
2024/04/09 02:05:12;;;;;;;10.57;2.83;;;7.90;99.90;;;7.25;100.00;100860.56;4458850;26;20004;-54
2024/04/09 02:07:13;;;;;;;11.23;2.35;;;8.00;99.90;;;7.24;100.00;100877.25;4458745;26;20007;-56
2024/04/09 02:09:14;;;;;;;10.45;1.98;;;7.90;99.90;;;7.24;100.00;100875.47;4458553;26;20000;-55
2024/04/09 02:11:15;;;;;;;13.23;2.20;;;7.90;99.90;;;7.21;100.00;100885.38;4458913;26;20015;-54
2024/04/09 02:13:16;;;;;;;14.13;2.25;;;7.90;99.90;;;7.20;100.00;100876.66;4458639;26;20000;-55
2024/04/09 02:15:17;;;;;;;9.73;1.85;;;8.00;99.90;;;7.18;100.00;100883.00;4458703;26;20008;-54
2024/04/09 02:17:18;;;;;;;13.13;2.50;;;8.00;99.90;;;7.38;100.00;100903.13;4458830;26;20011;-56
2024/04/09 02:19:19;;;;;;;11.13;2.40;;;8.00;99.90;;;7.60;100.00;100899.50;4458943;26;20016;-56
2024/04/09 02:21:20;;;;;;;6.07;1.50;;;8.20;99.90;;;7.57;100.00;100900.59;4434722;26;20001;-54
2024/04/09 02:23:21;;;;;;;11.98;1.63;;;8.20;99.90;;;7.67;100.00;100911.13;4458657;26;20005;-56
2024/04/09 02:25:22;;;;;;;8.38;1.45;;;8.30;99.90;;;7.72;100.00;100938.66;4458490;26;20011;-56
2024/04/09 02:27:24;;;;;;;10.82;2.28;;;8.40;99.90;;;7.87;100.00;100904.13;4458641;26;20432;-56
2024/04/09 02:29:25;;;;;;;8.40;2.25;;;8.50;99.90;;;7.94;100.00;100926.28;4458608;26;20000;-57
2024/04/09 02:31:27;;;;;;;11.90;2.33;;;8.60;99.90;;;7.69;100.00;100928.41;4458477;26;20100;-56
2024/04/09 02:33:28;;;;;;;14.13;2.03;;;8.50;99.90;;;7.61;100.00;100930.88;4458412;26;20004;-55
2024/04/09 02:35:29;;;;;;;8.75;2.20;;;8.40;99.90;;;7.55;100.00;100938.44;4458444;26;20019;-56
2024/04/09 02:37:31;;;;;;;9.35;1.60;;;8.40;99.90;;;7.57;100.00;100929.47;4458603;26;20086;-54
2024/04/09 02:39:32;;;;;;;10.57;1.90;;;8.30;99.90;;;7.38;100.00;100916.25;4458345;26;20008;-56
2024/04/09 02:41:35;;;;;;;15.15;3.20;;;8.20;99.90;;;7.33;100.00;100904.47;4458218;26;20004;-56
2024/04/09 02:43:36;;;;;;;10.25;1.95;;;8.10;99.90;;;7.24;100.00;100912.19;4458468;26;20004;-55
2024/04/09 02:45:37;;;;;;;10.98;2.17;;;8.00;99.90;;;7.10;100.00;100916.94;4458237;26;20463;-54
2024/04/09 02:47:39;;;;;;;10.07;1.40;;;7.90;99.90;;;7.02;100.00;100916.72;4458188;26;20032;-54
2024/04/09 02:49:43;;;;;;;8.05;1.90;;;7.80;99.90;;;6.96;100.00;100922.53;4458104;26;20004;-55
2024/04/09 02:51:44;;;;;;;8.35;1.30;;;7.70;99.90;;;6.93;100.00;100928.84;4458119;26;20011;-54
2024/04/09 02:53:45;;;;;;;5.93;1.38;;;7.70;99.90;;;6.85;100.00;100939.13;4457859;26;20004;-53
2024/04/09 02:55:47;;;;;;;6.80;2.28;;;7.60;99.90;;;6.69;100.00;100944.81;4458017;26;19996;-54
2024/04/09 02:57:48;;;;;;;9.00;1.67;;;7.50;99.90;;;6.57;100.00;100942.38;4458069;26;20004;-52
2024/04/09 02:59:53;;;;;;;6.03;1.33;;;7.40;99.90;;;6.49;100.00;100956.09;4458339;26;20004;-56
2024/04/09 03:01:53;;;;;;;7.93;1.60;;;7.30;99.90;;;6.45;100.00;100966.97;4458103;26;20008;-56
2024/04/09 03:03:55;;;;;;;13.02;1.67;;;7.30;99.90;;;6.33;100.00;100968.75;4457754;26;20011;-56
2024/04/09 03:05:56;;;;;;;5.80;1.33;;;7.20;99.90;;;6.31;100.00;100970.69;4457867;26;20008;-55
2024/04/09 03:07:58;;;;;;;5.85;1.25;;;7.20;99.90;;;6.28;100.00;100970.09;4457914;26;20000;-56
2024/04/09 03:09:59;;;;;;;12.23;2.28;;;7.10;99.90;;;6.24;100.00;100972.16;4457388;26;20054;-55
2024/04/09 03:12:01;;;;;;;10.43;1.70;;;7.10;99.90;;;6.18;100.00;100971.78;4457156;26;20012;-55
2024/04/09 03:14:06;;;;;;;4.40;1.42;;;7.10;99.90;;;6.13;100.00;100987.84;4458022;26;20004;-55
2024/04/09 03:16:16;;;;;;;6.60;2.50;;;7.00;99.90;;;6.13;100.00;100990.47;4458049;26;20007;-54
2024/04/09 03:18:17;;;;;;;12.48;1.80;;;6.90;99.90;;;6.08;100.00;100996.09;4457985;26;20004;-55
2024/04/09 03:20:18;;;;;;;10.63;1.70;;;6.90;99.90;;;6.25;100.00;101005.22;4457798;26;20460;-55
2024/04/09 03:22:19;;;;;;;11.88;1.63;;;6.90;99.90;;;6.33;100.00;101005.44;4457735;26;20015;-55
2024/04/09 03:24:19;;;;;;;11.43;1.88;;;7.00;99.90;;;6.25;100.00;101005.22;4457663;26;20071;-54
2024/04/09 03:26:20;;;;;;;10.05;1.80;;;7.00;99.90;;;6.23;100.00;101003.69;4457899;26;20028;-56
2024/04/09 03:28:21;;;;;;;12.77;2.17;;;7.00;99.90;;;6.27;100.00;100999.88;4457783;26;20011;-52
2024/04/09 03:30:22;;;;;;;14.48;2.20;;;7.00;99.90;;;6.34;100.00;101001.88;4457888;26;20011;-54
2024/04/09 03:32:23;;;;;;;12.95;2.47;;;7.00;99.90;;;6.29;100.00;101014.50;4457641;26;20012;-54
2024/04/09 03:34:24;;;;;;;13.65;1.65;;;7.00;99.90;;;6.32;100.00;101019.50;4457685;26;20060;-55
2024/04/09 03:36:25;;;;;;;11.02;2.03;;;7.10;99.90;;;6.31;100.00;101023.06;4457894;26;20019;-54
2024/04/09 03:38:27;;;;;;;9.40;2.20;;;7.00;99.90;;;6.23;100.00;101017.63;4457561;26;20015;-56
2024/04/09 03:40:28;;;;;;;13.25;2.92;;;7.00;99.90;;;6.17;100.00;101023.34;4457325;26;20074;-56
2024/04/09 03:42:29;;;;;;;8.57;1.52;;;7.00;99.90;;;6.13;100.00;101027.97;4457373;26;20019;-54
2024/04/09 03:44:30;;;;;;;15.45;2.55;;;6.90;99.90;;;6.05;100.00;101019.91;4457679;26;20008;-57
2024/04/09 03:46:31;;;;;;;10.45;1.98;;;6.90;99.90;;;6.02;100.00;101027.16;4457559;26;20028;-54
2024/04/09 03:48:33;;;;;;;6.32;1.63;;;6.80;99.90;;;6.03;100.00;101027.03;4457552;26;20015;-54
2024/04/09 03:50:37;;;;;;;14.38;2.70;;;6.80;99.90;;;6.01;100.00;101021.09;4457473;26;20012;-55
2024/04/09 03:52:38;;;;;;;7.70;1.60;;;6.80;99.90;;;5.96;100.00;101027.63;4457365;26;20004;-55
2024/04/09 03:54:39;;;;;;;8.68;1.95;;;6.80;99.90;;;5.97;100.00;101024.06;4456728;26;20037;-56
2024/04/09 03:56:40;;;;;;;10.98;1.98;;;6.70;99.90;;;5.91;100.00;101024.56;4457588;26;20014;-54
2024/04/09 03:58:43;;;;;;;11.98;1.95;;;6.70;99.90;;;5.84;100.00;101028.56;4457273;26;20016;-54
2024/04/09 04:01:03;;;;;;;10.30;2.47;;;6.70;99.90;;;5.80;100.00;101016.66;4457367;26;20001;-54
2024/04/09 04:03:04;;;;;;;14.10;1.90;;;6.60;99.90;;;5.74;100.00;101022.34;4457132;26;20239;-56
2024/04/09 04:05:05;;;;;;;9.80;2.40;;;6.50;99.90;;;5.68;100.00;101022.81;4457075;26;20427;-56
2024/04/09 04:07:06;;;;;;;13.88;4.07;;;6.50;99.90;;;5.64;100.00;101016.19;4457171;26;20000;-55
2024/04/09 04:09:08;;;;;;;10.30;3.00;;;6.50;99.90;;;5.61;100.00;101029.50;4455415;26;20055;-56
2024/04/09 04:11:12;;;;;;;14.57;3.20;;;6.50;99.90;;;5.69;100.00;101027.13;4457041;26;20375;-56
2024/04/09 04:13:13;;;;;;;10.95;3.15;;;6.50;99.90;;;5.71;100.00;101036.50;4457209;26;20004;-56
2024/04/09 04:15:14;;;;;;;15.23;2.92;;;6.50;99.90;;;5.73;100.00;101032.00;4457109;26;20086;-56
2024/04/09 04:17:15;;;;;;;13.88;2.28;;;6.50;99.90;;;5.80;100.00;101048.91;4457028;26;20008;-56
2024/04/09 04:19:16;;;;;;;10.75;2.03;;;6.60;99.90;;;5.75;100.00;101047.59;4457078;26;20053;-56
2024/04/09 04:21:20;;;;;;;11.10;2.08;;;6.50;99.90;;;5.72;100.00;101050.44;4456532;26;20333;-56
2024/04/09 04:23:21;;;;;;;10.10;2.65;;;6.50;99.90;;;5.71;100.00;101054.00;4461879;26;20007;-56
2024/04/09 04:25:21;;;;;;;14.52;2.45;;;6.50;99.90;;;5.67;100.00;101053.41;4459731;26;20000;-55
2024/04/09 04:27:22;;;;;;;9.65;2.20;;;6.50;99.90;;;5.69;100.00;101053.28;4460015;26;20000;-55
2024/04/09 04:29:23;;;;;;;12.90;2.22;;;6.50;99.90;;;5.72;100.00;101066.16;4459655;26;20036;-56
2024/04/09 04:31:25;;;;;;;10.60;3.33;;;6.50;99.90;;;5.69;100.00;101061.97;4459302;26;19996;-57
2024/04/09 04:33:27;;;;;;;10.27;2.75;;;6.50;99.90;;;5.69;100.00;101063.75;4459979;26;20004;-56
2024/04/09 04:35:28;;;;;;;13.30;2.25;;;6.50;99.90;;;5.69;100.00;101066.38;4460029;26;20004;-55
2024/04/09 04:37:29;;;;;;;10.30;3.13;;;6.50;99.90;;;5.69;100.00;101063.75;4459024;26;20019;-56
2024/04/09 04:39:29;;;;;;;10.85;2.63;;;6.50;99.90;;;5.74;100.00;101069.47;4459562;26;20000;-56
2024/04/09 04:41:30;;;;;;;10.77;3.38;;;6.50;99.90;;;5.82;100.00;101078.44;4459490;26;20342;-53
2024/04/09 04:43:32;;;;;;;15.48;4.20;;;6.50;99.90;;;5.83;100.00;101081.84;4459691;26;20085;-56
2024/04/09 04:45:33;;;;;;;14.48;4.00;;;6.60;99.90;;;5.88;100.00;101085.00;4459507;26;20050;-54
2024/04/09 04:47:34;;;;;;;5.32;3.17;;;6.60;99.90;;;5.90;100.00;101085.72;4460008;26;20471;-56
2024/04/09 04:49:35;;;;;;;16.00;3.08;;;6.60;99.90;;;5.91;100.00;101090.81;4459940;26;20509;-54
2024/04/09 04:51:36;;;;;;;12.68;2.65;;;6.60;99.90;;;6.10;100.00;101085.84;4459683;26;20000;-56
2024/04/09 04:53:37;;;;;;;8.98;2.60;;;6.70;99.90;;;6.05;100.00;101100.25;4459073;26;20000;-55
2024/04/09 04:55:38;;;;;;;13.98;2.38;;;6.80;99.90;;;6.04;100.00;101091.56;4459470;26;20011;-57
2024/04/09 04:57:39;;;;;;;9.88;2.28;;;6.80;99.90;;;6.04;100.00;101098.56;4459473;26;20043;-53
2024/04/09 04:59:40;;;;;;;9.15;1.80;;;6.80;99.90;;;6.08;100.00;101102.63;4459608;26;20451;-54
2024/04/09 05:01:40;;;;;;;14.43;2.38;;;6.90;99.90;;;6.06;100.00;101113.19;4459023;26;20018;-54
2024/04/09 05:03:41;;;;;;;9.88;2.45;;;6.80;99.90;;;6.18;100.00;101110.63;4458974;26;20000;-54
2024/04/09 05:05:42;;;;;;;8.65;1.80;;;6.80;99.90;;;6.11;100.00;101107.63;4459431;26;20043;-54
2024/04/09 05:07:43;;;;;;;13.70;2.38;;;6.90;99.90;;;6.08;100.00;101110.47;4459358;26;20007;-54
2024/04/09 05:09:44;;;;;;;14.30;2.30;;;6.90;99.90;;;6.12;100.00;101117.16;4459375;26;20008;-56
2024/04/09 05:11:46;;;;;;;8.30;1.67;;;6.90;99.90;;;6.16;100.00;101122.97;4459315;26;20008;-57
2024/04/09 05:13:47;;;;;;;11.60;2.33;;;6.90;99.90;;;6.16;100.00;101129.06;4459363;26;20012;-55
2024/04/09 05:15:47;;;;;;;18.67;2.45;;;6.90;99.90;;;6.13;100.00;101132.75;4459320;26;20444;-54
2024/04/09 05:17:50;;;;;;;9.32;2.05;;;6.90;99.90;;;6.12;100.00;101117.16;4459209;26;20015;-57
2024/04/09 05:19:51;;;;;;;9.70;1.65;;;6.90;99.90;;;6.16;100.00;101133.44;4459210;26;20000;-56
2024/04/09 05:21:51;;;;;;;10.15;2.15;;;6.90;99.90;;;6.14;100.00;101138.81;4459112;26;20000;-53
2024/04/09 05:23:52;;;;;;;6.82;2.17;;;6.90;99.90;;;6.19;100.00;101144.53;4458926;26;20018;-53
2024/04/09 05:25:53;;;;;;;15.70;2.60;;;6.90;99.90;;;6.32;100.00;101140.03;4459090;26;20144;-54
2024/04/09 05:27:57;;;;;;;11.00;1.33;;;7.00;99.90;;;6.29;100.00;101145.50;4459307;26;20004;-55
2024/04/09 05:29:58;;;;;;;8.55;1.73;;;7.00;99.90;;;6.24;100.00;101142.41;4459191;26;20024;-57
2024/04/09 05:31:59;;;;;;;8.23;2.38;;;7.00;99.90;;;6.36;100.00;101145.88;4459328;26;20016;-56
2024/04/09 05:34:01;;;;;;;13.88;2.65;;;7.10;99.90;;;6.34;100.00;101148.59;4458238;26;20460;-54
2024/04/09 05:36:02;;;;;;;7.40;1.67;;;7.10;99.90;;;6.42;100.00;101155.88;4458816;26;20012;-56
2024/04/09 05:38:03;;;;;;;8.80;1.75;;;7.10;99.90;;;6.48;100.00;101152.78;4459123;26;20004;-56
2024/04/09 05:40:08;;;;;;;8.32;1.85;;;7.10;99.90;;;6.44;100.00;101153.94;4458397;26;19996;-54
2024/04/09 05:42:10;;;;;;;12.95;2.10;;;7.20;99.90;;;6.42;100.00;101148.00;4459399;26;20004;-57
2024/04/09 05:44:11;;;;;;;14.68;1.83;;;7.20;99.90;;;6.41;100.00;101165.50;4452639;26;20001;-56
2024/04/09 05:46:12;;;;;;;15.65;2.38;;;7.20;99.90;;;6.45;100.00;101166.91;4458833;26;20000;-56
2024/04/09 05:48:13;;;;;;;15.18;1.83;;;7.10;99.90;;;6.43;100.00;101165.38;4458781;26;20034;-57
2024/04/09 05:50:14;;;;;;;12.32;1.88;;;7.20;99.90;;;6.49;100.00;101164.91;4459110;26;20421;-56
2024/04/09 05:52:15;;;;;;;11.32;2.95;;;7.20;99.90;;;6.41;100.00;101176.00;4458690;26;20004;-55
2024/04/09 05:54:19;;;;;;;14.82;2.67;;;7.20;99.90;;;6.45;100.00;101172.16;4458259;26;20456;-56
2024/04/09 05:56:20;;;;;;;17.77;2.50;;;7.20;99.90;;;6.44;100.00;101170.50;4458950;26;20003;-55
2024/04/09 05:58:21;;;;;;;11.43;2.42;;;7.20;99.90;;;6.45;100.00;101180.03;4458850;26;20436;-57
2024/04/09 06:00:22;;;;;;;14.23;2.90;;;7.20;99.90;;;6.49;100.00;101191.94;4458721;26;20019;-53
2024/04/09 06:02:23;;;;;;;8.43;2.28;;;7.20;99.90;;;6.44;100.00;101190.63;4458906;26;20027;-55
2024/04/09 06:04:24;;;;;;;16.15;2.53;;;7.20;99.90;;;6.48;100.00;101192.09;4458537;26;20036;-54
2024/04/09 06:06:25;;;;;;;12.13;2.58;;;7.20;99.90;;;6.51;100.00;101205.75;4458638;26;20020;-55
2024/04/09 06:08:26;;;;;;;12.95;2.67;;;7.20;99.90;;;6.55;100.00;101207.19;4458423;26;20081;-56
2024/04/09 06:10:27;;;;;;;14.82;2.38;;;7.30;99.90;;;6.57;100.00;101213.16;4458802;26;20019;-54
2024/04/09 06:12:28;;;;;;;11.82;2.60;;;7.30;99.90;;;6.54;100.00;101200.28;4458560;26;20019;-56
2024/04/09 06:14:29;;;;;;;13.32;2.35;;;7.30;99.90;;;6.69;100.00;101212.19;4458645;26;20343;-54
2024/04/09 06:16:30;;;;;;;14.75;4.88;;;7.40;99.90;;;6.71;100.00;101222.56;4458512;26;20004;-55
2024/04/09 06:18:31;;;;;;;12.07;3.10;;;7.40;99.90;;;6.72;100.00;101221.59;4458555;26;20324;-53
2024/04/09 06:20:31;;;;;;;13.43;3.17;;;7.40;99.90;;;6.70;100.00;101226.13;4458213;26;20487;-56
2024/04/09 06:22:32;;;;;;;15.32;2.80;;;7.50;99.90;;;6.89;100.00;101228.16;4458450;26;20460;-58
2024/04/09 06:24:33;;;;;;;26.30;7.30;;;7.50;99.90;;;6.98;100.00;101228.28;4458276;26;20332;-56
2024/04/09 06:26:34;;;;;;;11.73;4.43;;;7.60;99.90;;;6.97;100.00;101236.25;4458617;26;20036;-54
2024/04/09 06:28:35;;;;;;;15.88;3.80;;;7.60;99.90;;;7.02;100.00;101229.69;4458577;26;20031;-57
2024/04/09 06:30:36;;;;;;;14.35;3.90;;;7.70;99.90;;;7.09;100.00;101240.53;4461617;26;20004;-56
2024/04/09 06:32:39;;;;;;;9.02;3.00;;;7.70;99.90;;;7.14;100.00;101243.63;4458299;26;20000;-57
2024/04/09 06:34:42;;;;;;;9.80;2.72;;;7.80;99.90;;;7.09;100.00;101246.63;4458495;26;20000;-53
2024/04/09 06:36:42;;;;;;;12.55;3.17;;;7.80;99.90;;;7.16;100.00;101253.06;4458436;26;20005;-52
2024/04/09 06:38:43;;;;;;;8.43;2.53;;;7.80;99.90;;;7.23;100.00;101243.72;4458059;26;20018;-56
2024/04/09 06:40:46;;;;;;;7.95;1.90;;;7.90;99.90;;;7.17;100.00;101246.84;4458000;26;20000;-57
2024/04/09 06:42:47;;;;;;;8.23;2.25;;;7.90;99.90;;;7.22;100.00;101256.97;4458058;26;20000;-54
2024/04/09 06:44:48;;;;;;;10.25;2.40;;;7.90;99.90;;;7.30;100.00;101269.47;4456112;26;20481;-57
2024/04/09 06:46:48;;;;;;;13.02;1.98;;;8.00;99.90;;;7.27;100.00;101260.06;4457191;26;20461;-53
2024/04/09 06:48:49;;;;;;;10.65;2.08;;;8.00;99.90;;;7.44;100.00;101271.81;4458259;26;20390;-55
2024/04/09 06:50:50;;;;;;;16.10;2.38;;;8.00;99.90;;;7.43;100.00;101278.91;4456587;26;20479;-56
2024/04/09 06:52:51;;;;;;;8.05;2.15;;;8.10;99.90;;;7.53;100.00;101276.34;4458182;26;20016;-56
2024/04/09 06:54:52;;;;;;;12.38;2.55;;;8.20;99.90;;;7.52;100.00;101279.94;4457718;26;20004;-55
2024/04/09 06:56:53;;;;;;;8.95;2.78;;;8.20;99.90;;;7.63;100.00;101288.63;4457946;26;20004;-56
2024/04/09 06:58:54;;;;;;;11.43;2.20;;;8.30;99.90;;;7.62;100.00;101291.34;4458096;26;20012;-55
2024/04/09 07:00:54;;;;;;;15.55;3.05;;;8.30;99.90;;;7.80;100.00;101295.97;4458015;26;20528;-55
2024/04/09 07:02:57;;;;;;;11.80;1.95;;;8.40;99.90;;;7.81;100.00;101286.28;4457939;26;20030;-56
2024/04/09 07:04:59;;;;;;;13.75;2.47;;;8.40;99.90;;;7.79;100.00;101285.59;4457967;26;20019;-54
2024/04/09 07:07:00;;;;;;;7.18;1.58;;;8.50;99.90;;;7.84;100.00;101293.09;4457918;26;20014;-54
2024/04/09 07:09:03;;;;;;;6.55;1.33;;;8.50;99.90;;;7.88;100.00;101297.13;4457889;26;20015;-54
2024/04/09 07:11:04;;;;;;;5.95;1.63;;;8.60;99.90;;;7.94;100.00;101300.09;4458190;26;20518;-56
2024/04/09 07:13:05;;;;;;;6.32;2.15;;;8.60;99.90;;;8.00;100.00;101296.97;4457763;26;20000;-55
2024/04/09 07:15:06;;;;;;;14.05;2.75;;;8.70;99.90;;;8.01;100.00;101308.28;4458088;26;20439;-56
2024/04/09 07:17:08;;;;;;;7.75;1.67;;;8.70;99.90;;;8.04;100.00;101311.50;4457821;26;20011;-55
2024/04/09 07:19:09;;;;;;;7.32;1.75;;;8.70;99.90;;;8.15;100.00;101316.72;4458068;26;20000;-57
2024/04/09 07:21:10;;;;;;;9.48;2.13;;;8.80;99.90;;;8.15;100.00;101321.16;4457789;26;20049;-55
2024/04/09 07:23:11;;;;;;;9.90;2.40;;;8.80;99.90;;;8.20;100.00;101311.09;4457789;26;20439;-57
2024/04/09 07:25:13;;;;;;;11.70;2.08;;;8.90;99.90;;;8.23;100.00;101321.34;4457825;26;20393;-55
2024/04/09 07:27:13;;;;;;;10.27;2.00;;;8.90;99.90;;;8.30;100.00;101333.06;4457851;26;20016;-54
2024/04/09 07:29:14;;;;;;;7.60;1.63;;;9.00;99.90;;;8.30;100.00;101322.56;4458243;26;20029;-56
2024/04/09 07:31:16;;;;;;;10.57;1.77;;;9.00;99.90;;;8.34;100.00;101322.16;4457773;26;20015;-56
2024/04/09 07:33:17;;;;;;;11.52;2.25;;;9.00;99.90;;;8.36;100.00;101335.19;4457959;26;20000;-57
2024/04/09 07:35:18;;;;;;;6.28;1.40;;;9.10;99.90;;;8.27;100.00;101322.78;4457961;26;20015;-53
2024/04/09 07:37:19;;;;;;;13.38;2.45;;;9.10;99.90;;;8.38;100.00;101338.50;4457881;26;20073;-55
2024/04/09 07:39:20;;;;;;;8.43;1.55;;;9.10;99.90;;;8.38;100.00;101343.78;4457455;26;20448;-57
2024/04/09 07:41:25;;;;;;;9.20;2.13;;;9.10;99.90;;;8.46;100.00;101341.31;4457133;26;20336;-55
2024/04/09 07:43:28;;;;;;;6.40;2.20;;;9.10;99.90;;;8.61;100.00;101347.09;4457581;26;20004;-55
2024/04/09 07:45:29;;;;;;;6.82;1.55;;;9.20;99.90;;;8.65;100.00;101345.88;4457804;26;20000;-57
2024/04/09 07:47:30;;;;;;;7.63;2.03;;;9.30;99.90;;;8.68;100.00;101351.72;4457626;26;20000;-57
2024/04/09 07:49:31;;;;;;;5.85;1.25;;;9.30;99.90;;;8.75;100.00;101346.78;4457634;26;20036;-56
2024/04/09 07:51:32;;;;;;;10.73;2.28;;;9.40;99.90;;;8.80;100.00;101357.75;4457439;26;20001;-58
2024/04/09 07:53:34;;;;;;;8.75;1.60;;;9.50;99.90;;;8.81;100.00;101360.25;4457541;26;19997;-58
2024/04/09 07:55:35;;;;;;;10.18;1.65;;;9.50;99.90;;;8.91;100.00;101365.56;4457368;26;20004;-58
2024/04/09 07:57:39;;;;;;;8.88;1.80;;;9.60;99.90;;;8.98;100.00;101360.63;4459155;26;20008;-58
2024/04/09 07:59:41;;;;;;;13.80;2.78;;;9.60;99.90;;;9.14;100.00;101374.16;4460455;26;20008;-57
2024/04/09 08:01:42;;;;;;;7.80;1.55;;;9.70;99.90;;;9.14;100.00;101368.88;4460310;26;20004;-58
2024/04/09 08:03:43;;;;;;;8.80;1.60;;;9.80;99.90;;;9.24;100.00;101378.47;4460233;26;20029;-57
2024/04/09 08:05:44;;;;;;;9.32;1.52;;;9.90;99.90;;;9.28;100.00;101381.69;4460211;26;20390;-57
2024/04/09 08:07:45;;;;;;;10.25;1.73;;;9.90;99.90;;;9.33;100.00;101388.22;4460110;26;20062;-58
2024/04/09 08:09:45;;;;;;;9.02;2.03;;;10.00;99.90;;;9.38;100.00;101382.53;4459963;26;20012;-57
2024/04/09 08:11:49;;;;;;;9.75;2.85;;;10.10;99.90;;;9.42;100.00;101394.47;4460241;26;20001;-58
2024/04/09 08:13:50;;;;;;;10.88;2.38;;;10.10;99.90;;;9.50;100.00;101397.28;4460255;26;20011;-57
2024/04/09 08:15:52;;;;;;;10.50;1.80;;;10.20;99.90;;;9.53;100.00;101401.47;4460066;26;20363;-57
2024/04/09 08:17:54;;;;;;;8.73;2.10;;;10.20;99.90;;;9.61;100.00;101402.47;4460277;26;20432;-58
2024/04/09 08:19:54;;;;;;;9.10;2.13;;;10.20;99.90;;;9.61;100.00;101404.25;4459894;26;20008;-58
2024/04/09 08:21:55;;;;;;;11.48;1.58;;;10.30;99.90;;;9.67;100.00;101395.81;4459871;26;20011;-57
2024/04/09 08:23:56;;;;;;;9.68;2.53;;;10.40;99.90;;;9.63;100.00;101392.63;4459501;26;20004;-57
2024/04/09 08:25:59;;;;;;;11.20;2.00;;;10.40;99.90;;;9.70;100.00;101409.56;4460144;26;20000;-58
2024/04/09 08:28:01;;;;;;;10.50;2.00;;;10.40;99.90;;;9.80;100.00;101415.69;4459644;26;20000;-58